sensor_id;sensor_type;location;lat;lon;timestamp;P1;durP1;ratioP1;P2;durP2;ratioP2
11439;SDS011;5776;51.814;4.510;2024-02-26T00:01:42;0.63;;;0.60;;
11439;SDS011;5776;51.814;4.510;2024-02-26T00:04:11;2.13;;;1.43;;
11439;SDS011;5776;51.814;4.510;2024-02-26T00:06:40;1.90;;;1.40;;
11439;SDS011;5776;51.814;4.510;2024-02-26T00:09:07;3.87;;;1.40;;
11439;SDS011;5776;51.814;4.510;2024-02-26T00:11:33;2.63;;;1.73;;
11439;SDS011;5776;51.814;4.510;2024-02-26T00:14:00;2.20;;;1.40;;
11439;SDS011;5776;51.814;4.510;2024-02-26T00:16:26;1.50;;;1.40;;
11439;SDS011;5776;51.814;4.510;2024-02-26T00:18:53;2.10;;;1.40;;
11439;SDS011;5776;51.814;4.510;2024-02-26T00:21:19;1.10;;;0.93;;
11439;SDS011;5776;51.814;4.510;2024-02-26T00:23:45;2.37;;;1.37;;
11439;SDS011;5776;51.814;4.510;2024-02-26T00:26:11;1.30;;;1.00;;
11439;SDS011;5776;51.814;4.510;2024-02-26T00:28:36;1.30;;;1.03;;
11439;SDS011;5776;51.814;4.510;2024-02-26T00:31:02;1.07;;;1.00;;
11439;SDS011;5776;51.814;4.510;2024-02-26T00:33:29;1.17;;;0.70;;
11439;SDS011;5776;51.814;4.510;2024-02-26T00:35:55;2.17;;;1.20;;
11439;SDS011;5776;51.814;4.510;2024-02-26T00:38:21;1.23;;;1.07;;
11439;SDS011;5776;51.814;4.510;2024-02-26T00:40:47;0.77;;;0.77;;
11439;SDS011;5776;51.814;4.510;2024-02-26T00:43:13;1.63;;;1.07;;
11439;SDS011;5776;51.814;4.510;2024-02-26T00:45:39;2.13;;;1.20;;
11439;SDS011;5776;51.814;4.510;2024-02-26T00:48:05;1.97;;;1.20;;
11439;SDS011;5776;51.814;4.510;2024-02-26T00:50:31;1.23;;;1.13;;
11439;SDS011;5776;51.814;4.510;2024-02-26T00:52:57;1.73;;;1.60;;
11439;SDS011;5776;51.814;4.510;2024-02-26T00:55:23;2.77;;;1.27;;
11439;SDS011;5776;51.814;4.510;2024-02-26T00:57:49;1.40;;;1.20;;
11439;SDS011;5776;51.814;4.510;2024-02-26T01:00:15;1.50;;;1.23;;
11439;SDS011;5776;51.814;4.510;2024-02-26T01:02:42;2.00;;;1.40;;
11439;SDS011;5776;51.814;4.510;2024-02-26T01:05:12;1.40;;;1.13;;
11439;SDS011;5776;51.814;4.510;2024-02-26T01:07:38;2.20;;;1.30;;
11439;SDS011;5776;51.814;4.510;2024-02-26T01:10:06;1.80;;;1.40;;
11439;SDS011;5776;51.814;4.510;2024-02-26T01:12:32;1.80;;;1.20;;
11439;SDS011;5776;51.814;4.510;2024-02-26T01:15:00;4.00;;;1.20;;
11439;SDS011;5776;51.814;4.510;2024-02-26T01:17:26;2.57;;;1.17;;
11439;SDS011;5776;51.814;4.510;2024-02-26T01:19:52;1.13;;;0.73;;
11439;SDS011;5776;51.814;4.510;2024-02-26T01:22:19;1.97;;;1.60;;
11439;SDS011;5776;51.814;4.510;2024-02-26T01:24:45;3.67;;;1.50;;
11439;SDS011;5776;51.814;4.510;2024-02-26T01:27:11;1.80;;;1.27;;
11439;SDS011;5776;51.814;4.510;2024-02-26T01:29:38;1.73;;;1.30;;
11439;SDS011;5776;51.814;4.510;2024-02-26T01:32:03;3.60;;;1.80;;
11439;SDS011;5776;51.814;4.510;2024-02-26T01:34:30;3.77;;;1.70;;
11439;SDS011;5776;51.814;4.510;2024-02-26T01:36:57;2.47;;;1.37;;
11439;SDS011;5776;51.814;4.510;2024-02-26T01:39:23;1.50;;;1.20;;
11439;SDS011;5776;51.814;4.510;2024-02-26T01:41:49;3.00;;;1.87;;
11439;SDS011;5776;51.814;4.510;2024-02-26T01:44:17;1.50;;;1.20;;
11439;SDS011;5776;51.814;4.510;2024-02-26T01:46:43;2.27;;;1.83;;
11439;SDS011;5776;51.814;4.510;2024-02-26T01:49:09;1.77;;;1.60;;
11439;SDS011;5776;51.814;4.510;2024-02-26T01:51:38;0.83;;;0.63;;
11439;SDS011;5776;51.814;4.510;2024-02-26T01:54:05;0.87;;;0.70;;
11439;SDS011;5776;51.814;4.510;2024-02-26T01:56:33;2.40;;;1.40;;
11439;SDS011;5776;51.814;4.510;2024-02-26T01:59:02;1.50;;;1.10;;
11439;SDS011;5776;51.814;4.510;2024-02-26T02:01:29;1.97;;;1.60;;
11439;SDS011;5776;51.814;4.510;2024-02-26T02:03:57;2.73;;;1.40;;
11439;SDS011;5776;51.814;4.510;2024-02-26T02:06:25;1.00;;;0.83;;
11439;SDS011;5776;51.814;4.510;2024-02-26T02:08:55;2.13;;;1.30;;
11439;SDS011;5776;51.814;4.510;2024-02-26T02:11:22;3.03;;;1.73;;
11439;SDS011;5776;51.814;4.510;2024-02-26T02:13:47;4.93;;;1.60;;
11439;SDS011;5776;51.814;4.510;2024-02-26T02:16:13;1.90;;;1.33;;
11439;SDS011;5776;51.814;4.510;2024-02-26T02:18:41;4.33;;;1.87;;
11439;SDS011;5776;51.814;4.510;2024-02-26T02:21:07;2.27;;;1.43;;
11439;SDS011;5776;51.814;4.510;2024-02-26T02:23:33;1.73;;;1.20;;
11439;SDS011;5776;51.814;4.510;2024-02-26T02:25:59;1.17;;;1.07;;
11439;SDS011;5776;51.814;4.510;2024-02-26T02:28:29;1.70;;;1.50;;
11439;SDS011;5776;51.814;4.510;2024-02-26T02:30:56;2.57;;;1.40;;
11439;SDS011;5776;51.814;4.510;2024-02-26T02:33:23;1.30;;;0.90;;
11439;SDS011;5776;51.814;4.510;2024-02-26T02:35:52;1.83;;;1.53;;
11439;SDS011;5776;51.814;4.510;2024-02-26T02:38:20;2.57;;;0.90;;
11439;SDS011;5776;51.814;4.510;2024-02-26T02:40:46;1.33;;;1.23;;
11439;SDS011;5776;51.814;4.510;2024-02-26T02:43:12;1.27;;;1.10;;
11439;SDS011;5776;51.814;4.510;2024-02-26T02:45:40;3.70;;;1.40;;
11439;SDS011;5776;51.814;4.510;2024-02-26T02:48:06;2.20;;;1.60;;
11439;SDS011;5776;51.814;4.510;2024-02-26T02:50:32;2.30;;;1.37;;
11439;SDS011;5776;51.814;4.510;2024-02-26T02:52:58;1.63;;;1.43;;
11439;SDS011;5776;51.814;4.510;2024-02-26T02:55:24;1.37;;;1.20;;
11439;SDS011;5776;51.814;4.510;2024-02-26T02:57:50;1.10;;;1.00;;
11439;SDS011;5776;51.814;4.510;2024-02-26T03:00:16;2.40;;;1.60;;
11439;SDS011;5776;51.814;4.510;2024-02-26T03:02:44;1.60;;;1.13;;
11439;SDS011;5776;51.814;4.510;2024-02-26T03:05:11;1.70;;;1.33;;
11439;SDS011;5776;51.814;4.510;2024-02-26T03:07:37;1.47;;;1.00;;
11439;SDS011;5776;51.814;4.510;2024-02-26T03:10:03;2.33;;;1.73;;
11439;SDS011;5776;51.814;4.510;2024-02-26T03:12:29;1.47;;;1.27;;
11439;SDS011;5776;51.814;4.510;2024-02-26T03:14:56;1.63;;;1.20;;
11439;SDS011;5776;51.814;4.510;2024-02-26T03:17:23;5.27;;;2.20;;
11439;SDS011;5776;51.814;4.510;2024-02-26T03:19:50;0.67;;;0.57;;
11439;SDS011;5776;51.814;4.510;2024-02-26T03:22:19;1.20;;;0.97;;
11439;SDS011;5776;51.814;4.510;2024-02-26T03:24:45;1.53;;;1.40;;
11439;SDS011;5776;51.814;4.510;2024-02-26T03:27:12;1.40;;;1.10;;
11439;SDS011;5776;51.814;4.510;2024-02-26T03:29:38;4.17;;;2.00;;
11439;SDS011;5776;51.814;4.510;2024-02-26T03:32:05;1.97;;;1.53;;
11439;SDS011;5776;51.814;4.510;2024-02-26T03:34:32;2.97;;;2.03;;
11439;SDS011;5776;51.814;4.510;2024-02-26T03:37:01;1.83;;;1.43;;
11439;SDS011;5776;51.814;4.510;2024-02-26T03:39:27;2.73;;;2.10;;
11439;SDS011;5776;51.814;4.510;2024-02-26T03:41:53;2.10;;;1.80;;
11439;SDS011;5776;51.814;4.510;2024-02-26T03:44:19;2.30;;;2.10;;
11439;SDS011;5776;51.814;4.510;2024-02-26T03:46:46;2.60;;;2.27;;
11439;SDS011;5776;51.814;4.510;2024-02-26T03:49:12;1.70;;;1.47;;
11439;SDS011;5776;51.814;4.510;2024-02-26T03:51:39;2.70;;;1.90;;
11439;SDS011;5776;51.814;4.510;2024-02-26T03:54:04;2.53;;;1.83;;
11439;SDS011;5776;51.814;4.510;2024-02-26T03:56:30;2.33;;;2.10;;
11439;SDS011;5776;51.814;4.510;2024-02-26T03:58:55;6.77;;;2.20;;
11439;SDS011;5776;51.814;4.510;2024-02-26T04:01:21;4.17;;;2.63;;
11439;SDS011;5776;51.814;4.510;2024-02-26T04:03:48;1.63;;;1.00;;
11439;SDS011;5776;51.814;4.510;2024-02-26T04:06:15;3.10;;;2.60;;
11439;SDS011;5776;51.814;4.510;2024-02-26T04:08:41;3.07;;;1.90;;
11439;SDS011;5776;51.814;4.510;2024-02-26T04:11:07;1.77;;;1.47;;
11439;SDS011;5776;51.814;4.510;2024-02-26T04:13:33;1.97;;;1.53;;
11439;SDS011;5776;51.814;4.510;2024-02-26T04:16:00;4.00;;;2.00;;
11439;SDS011;5776;51.814;4.510;2024-02-26T04:18:29;2.27;;;1.90;;
11439;SDS011;5776;51.814;4.510;2024-02-26T04:20:56;4.43;;;2.77;;
11439;SDS011;5776;51.814;4.510;2024-02-26T04:23:22;3.00;;;1.73;;
11439;SDS011;5776;51.814;4.510;2024-02-26T04:25:49;2.37;;;1.97;;
11439;SDS011;5776;51.814;4.510;2024-02-26T04:28:15;2.70;;;2.40;;
11439;SDS011;5776;51.814;4.510;2024-02-26T04:30:42;5.50;;;2.50;;
11439;SDS011;5776;51.814;4.510;2024-02-26T04:33:07;3.23;;;2.03;;
11439;SDS011;5776;51.814;4.510;2024-02-26T04:35:33;2.53;;;1.80;;
11439;SDS011;5776;51.814;4.510;2024-02-26T04:38:01;2.57;;;1.97;;
11439;SDS011;5776;51.814;4.510;2024-02-26T04:40:27;2.70;;;1.77;;
11439;SDS011;5776;51.814;4.510;2024-02-26T04:42:52;3.47;;;2.07;;
11439;SDS011;5776;51.814;4.510;2024-02-26T04:45:18;2.63;;;1.57;;
11439;SDS011;5776;51.814;4.510;2024-02-26T04:47:46;2.50;;;1.83;;
11439;SDS011;5776;51.814;4.510;2024-02-26T04:50:12;2.27;;;1.87;;
11439;SDS011;5776;51.814;4.510;2024-02-26T04:52:38;3.17;;;1.57;;
11439;SDS011;5776;51.814;4.510;2024-02-26T04:55:04;2.60;;;2.00;;
11439;SDS011;5776;51.814;4.510;2024-02-26T04:57:30;4.57;;;2.63;;
11439;SDS011;5776;51.814;4.510;2024-02-26T04:59:57;3.73;;;2.83;;
11439;SDS011;5776;51.814;4.510;2024-02-26T05:02:23;2.60;;;2.40;;
11439;SDS011;5776;51.814;4.510;2024-02-26T05:04:50;3.20;;;2.50;;
11439;SDS011;5776;51.814;4.510;2024-02-26T05:07:16;4.73;;;2.57;;
11439;SDS011;5776;51.814;4.510;2024-02-26T05:09:43;3.63;;;2.33;;
11439;SDS011;5776;51.814;4.510;2024-02-26T05:12:09;3.47;;;2.97;;
11439;SDS011;5776;51.814;4.510;2024-02-26T05:14:35;3.57;;;2.40;;
11439;SDS011;5776;51.814;4.510;2024-02-26T05:17:02;5.40;;;2.77;;
11439;SDS011;5776;51.814;4.510;2024-02-26T05:19:28;3.87;;;2.17;;
11439;SDS011;5776;51.814;4.510;2024-02-26T05:21:54;3.50;;;2.23;;
11439;SDS011;5776;51.814;4.510;2024-02-26T05:24:20;3.70;;;2.27;;
11439;SDS011;5776;51.814;4.510;2024-02-26T05:26:48;4.57;;;2.97;;
11439;SDS011;5776;51.814;4.510;2024-02-26T05:29:14;2.57;;;1.73;;
11439;SDS011;5776;51.814;4.510;2024-02-26T05:31:43;2.07;;;1.77;;
11439;SDS011;5776;51.814;4.510;2024-02-26T05:34:09;3.13;;;2.17;;
11439;SDS011;5776;51.814;4.510;2024-02-26T05:36:35;4.40;;;2.80;;
11439;SDS011;5776;51.814;4.510;2024-02-26T05:39:01;2.80;;;1.80;;
11439;SDS011;5776;51.814;4.510;2024-02-26T05:41:27;4.57;;;3.17;;
11439;SDS011;5776;51.814;4.510;2024-02-26T05:43:53;4.50;;;3.00;;
11439;SDS011;5776;51.814;4.510;2024-02-26T05:46:20;3.07;;;2.30;;
11439;SDS011;5776;51.814;4.510;2024-02-26T05:48:48;2.90;;;2.67;;
11439;SDS011;5776;51.814;4.510;2024-02-26T05:51:14;3.83;;;2.60;;
11439;SDS011;5776;51.814;4.510;2024-02-26T05:53:40;3.57;;;2.33;;
11439;SDS011;5776;51.814;4.510;2024-02-26T05:56:06;3.27;;;1.93;;
11439;SDS011;5776;51.814;4.510;2024-02-26T05:58:33;5.40;;;3.30;;
11439;SDS011;5776;51.814;4.510;2024-02-26T06:00:59;3.93;;;2.30;;
11439;SDS011;5776;51.814;4.510;2024-02-26T06:03:26;4.43;;;2.47;;
11439;SDS011;5776;51.814;4.510;2024-02-26T06:05:53;3.10;;;2.27;;
11439;SDS011;5776;51.814;4.510;2024-02-26T06:08:19;6.70;;;2.43;;
11439;SDS011;5776;51.814;4.510;2024-02-26T06:10:45;4.73;;;3.03;;
11439;SDS011;5776;51.814;4.510;2024-02-26T06:13:11;4.27;;;2.03;;
11439;SDS011;5776;51.814;4.510;2024-02-26T06:15:37;2.63;;;1.77;;
11439;SDS011;5776;51.814;4.510;2024-02-26T06:18:02;4.37;;;3.43;;
11439;SDS011;5776;51.814;4.510;2024-02-26T06:20:28;3.70;;;2.73;;
11439;SDS011;5776;51.814;4.510;2024-02-26T06:22:54;3.50;;;2.80;;
11439;SDS011;5776;51.814;4.510;2024-02-26T06:25:20;2.50;;;1.93;;
11439;SDS011;5776;51.814;4.510;2024-02-26T06:27:47;3.33;;;2.30;;
11439;SDS011;5776;51.814;4.510;2024-02-26T06:30:13;3.00;;;2.00;;
11439;SDS011;5776;51.814;4.510;2024-02-26T06:32:39;1.60;;;1.40;;
11439;SDS011;5776;51.814;4.510;2024-02-26T06:35:05;2.37;;;2.03;;
11439;SDS011;5776;51.814;4.510;2024-02-26T06:37:36;4.43;;;2.00;;
11439;SDS011;5776;51.814;4.510;2024-02-26T06:40:03;3.67;;;2.80;;
11439;SDS011;5776;51.814;4.510;2024-02-26T06:42:29;3.93;;;2.90;;
11439;SDS011;5776;51.814;4.510;2024-02-26T06:44:56;4.63;;;2.63;;
11439;SDS011;5776;51.814;4.510;2024-02-26T06:47:22;5.73;;;3.13;;
11439;SDS011;5776;51.814;4.510;2024-02-26T06:49:48;5.33;;;3.63;;
11439;SDS011;5776;51.814;4.510;2024-02-26T06:52:14;4.50;;;3.17;;
11439;SDS011;5776;51.814;4.510;2024-02-26T06:54:42;6.37;;;4.00;;
11439;SDS011;5776;51.814;4.510;2024-02-26T06:57:07;6.00;;;4.27;;
11439;SDS011;5776;51.814;4.510;2024-02-26T06:59:33;5.70;;;3.83;;
11439;SDS011;5776;51.814;4.510;2024-02-26T07:01:59;6.40;;;4.13;;
11439;SDS011;5776;51.814;4.510;2024-02-26T07:04:25;9.57;;;3.47;;
11439;SDS011;5776;51.814;4.510;2024-02-26T07:06:51;5.03;;;3.27;;
11439;SDS011;5776;51.814;4.510;2024-02-26T07:09:17;5.03;;;2.87;;
11439;SDS011;5776;51.814;4.510;2024-02-26T07:11:43;4.53;;;3.23;;
11439;SDS011;5776;51.814;4.510;2024-02-26T07:14:10;6.07;;;4.07;;
11439;SDS011;5776;51.814;4.510;2024-02-26T07:16:36;5.10;;;3.30;;
11439;SDS011;5776;51.814;4.510;2024-02-26T07:19:02;6.37;;;4.37;;
11439;SDS011;5776;51.814;4.510;2024-02-26T07:21:29;6.80;;;3.63;;
11439;SDS011;5776;51.814;4.510;2024-02-26T07:23:55;9.07;;;5.10;;
11439;SDS011;5776;51.814;4.510;2024-02-26T07:26:22;15.13;;;5.77;;
11439;SDS011;5776;51.814;4.510;2024-02-26T07:28:51;8.77;;;5.30;;
11439;SDS011;5776;51.814;4.510;2024-02-26T07:31:17;10.53;;;5.93;;
11439;SDS011;5776;51.814;4.510;2024-02-26T07:33:43;10.27;;;4.47;;
11439;SDS011;5776;51.814;4.510;2024-02-26T07:36:09;9.53;;;5.90;;
11439;SDS011;5776;51.814;4.510;2024-02-26T07:38:35;11.80;;;5.43;;
11439;SDS011;5776;51.814;4.510;2024-02-26T07:41:01;12.10;;;7.17;;
11439;SDS011;5776;51.814;4.510;2024-02-26T07:43:28;11.90;;;6.00;;
11439;SDS011;5776;51.814;4.510;2024-02-26T07:45:54;8.57;;;4.27;;
11439;SDS011;5776;51.814;4.510;2024-02-26T07:48:20;7.43;;;5.40;;
11439;SDS011;5776;51.814;4.510;2024-02-26T07:50:46;7.27;;;3.93;;
11439;SDS011;5776;51.814;4.510;2024-02-26T07:53:13;11.53;;;5.80;;
11439;SDS011;5776;51.814;4.510;2024-02-26T07:55:39;8.03;;;4.40;;
11439;SDS011;5776;51.814;4.510;2024-02-26T07:58:04;8.03;;;4.60;;
11439;SDS011;5776;51.814;4.510;2024-02-26T08:00:30;12.77;;;7.10;;
11439;SDS011;5776;51.814;4.510;2024-02-26T08:02:56;11.07;;;4.53;;
11439;SDS011;5776;51.814;4.510;2024-02-26T08:05:22;6.33;;;3.47;;
11439;SDS011;5776;51.814;4.510;2024-02-26T08:07:48;10.30;;;6.47;;
11439;SDS011;5776;51.814;4.510;2024-02-26T08:10:14;11.10;;;6.73;;
11439;SDS011;5776;51.814;4.510;2024-02-26T08:12:40;12.17;;;6.90;;
11439;SDS011;5776;51.814;4.510;2024-02-26T08:15:06;9.03;;;4.97;;
11439;SDS011;5776;51.814;4.510;2024-02-26T08:17:33;11.27;;;5.90;;
11439;SDS011;5776;51.814;4.510;2024-02-26T08:19:59;12.63;;;7.67;;
11439;SDS011;5776;51.814;4.510;2024-02-26T08:22:26;11.00;;;5.70;;
11439;SDS011;5776;51.814;4.510;2024-02-26T08:24:51;11.70;;;6.90;;
11439;SDS011;5776;51.814;4.510;2024-02-26T08:27:17;12.27;;;7.10;;
11439;SDS011;5776;51.814;4.510;2024-02-26T08:29:43;6.60;;;4.43;;
11439;SDS011;5776;51.814;4.510;2024-02-26T08:32:10;11.30;;;6.47;;
11439;SDS011;5776;51.814;4.510;2024-02-26T08:34:36;15.17;;;7.70;;
11439;SDS011;5776;51.814;4.510;2024-02-26T08:37:02;12.50;;;7.57;;
11439;SDS011;5776;51.814;4.510;2024-02-26T08:39:28;6.10;;;4.20;;
11439;SDS011;5776;51.814;4.510;2024-02-26T08:41:56;8.47;;;5.33;;
11439;SDS011;5776;51.814;4.510;2024-02-26T08:44:21;10.93;;;7.03;;
11439;SDS011;5776;51.814;4.510;2024-02-26T08:46:47;9.97;;;6.03;;
11439;SDS011;5776;51.814;4.510;2024-02-26T08:49:14;9.17;;;6.33;;
11439;SDS011;5776;51.814;4.510;2024-02-26T08:51:42;10.07;;;6.23;;
11439;SDS011;5776;51.814;4.510;2024-02-26T08:54:09;5.10;;;2.73;;
11439;SDS011;5776;51.814;4.510;2024-02-26T08:56:36;4.80;;;3.50;;
11439;SDS011;5776;51.814;4.510;2024-02-26T08:59:01;5.47;;;3.47;;
11439;SDS011;5776;51.814;4.510;2024-02-26T09:01:29;6.70;;;4.00;;
11439;SDS011;5776;51.814;4.510;2024-02-26T09:03:57;9.47;;;5.40;;
11439;SDS011;5776;51.814;4.510;2024-02-26T09:06:23;5.83;;;4.13;;
11439;SDS011;5776;51.814;4.510;2024-02-26T09:08:49;9.83;;;3.73;;
11439;SDS011;5776;51.814;4.510;2024-02-26T09:11:15;6.37;;;4.03;;
11439;SDS011;5776;51.814;4.510;2024-02-26T09:13:41;6.10;;;4.77;;
11439;SDS011;5776;51.814;4.510;2024-02-26T09:16:08;7.30;;;4.50;;
11439;SDS011;5776;51.814;4.510;2024-02-26T09:18:35;8.50;;;4.80;;
11439;SDS011;5776;51.814;4.510;2024-02-26T09:21:03;7.47;;;5.60;;
11439;SDS011;5776;51.814;4.510;2024-02-26T09:23:31;7.37;;;4.47;;
11439;SDS011;5776;51.814;4.510;2024-02-26T09:25:57;6.07;;;4.70;;
11439;SDS011;5776;51.814;4.510;2024-02-26T09:28:23;5.03;;;3.27;;
11439;SDS011;5776;51.814;4.510;2024-02-26T09:30:49;7.97;;;5.37;;
11439;SDS011;5776;51.814;4.510;2024-02-26T09:33:15;8.27;;;3.63;;
11439;SDS011;5776;51.814;4.510;2024-02-26T09:35:41;6.20;;;3.83;;
11439;SDS011;5776;51.814;4.510;2024-02-26T09:38:08;2.57;;;1.93;;
11439;SDS011;5776;51.814;4.510;2024-02-26T09:40:34;3.07;;;2.73;;
11439;SDS011;5776;51.814;4.510;2024-02-26T09:43:00;5.30;;;3.07;;
11439;SDS011;5776;51.814;4.510;2024-02-26T09:45:29;4.23;;;3.20;;
11439;SDS011;5776;51.814;4.510;2024-02-26T09:47:58;4.20;;;2.70;;
11439;SDS011;5776;51.814;4.510;2024-02-26T09:50:24;8.97;;;3.80;;
11439;SDS011;5776;51.814;4.510;2024-02-26T09:52:50;5.40;;;3.13;;
11439;SDS011;5776;51.814;4.510;2024-02-26T09:55:17;7.30;;;3.43;;
11439;SDS011;5776;51.814;4.510;2024-02-26T09:57:45;5.37;;;4.17;;
11439;SDS011;5776;51.814;4.510;2024-02-26T10:00:15;5.63;;;3.30;;
11439;SDS011;5776;51.814;4.510;2024-02-26T10:02:47;3.40;;;2.40;;
11439;SDS011;5776;51.814;4.510;2024-02-26T10:05:19;7.17;;;3.23;;
11439;SDS011;5776;51.814;4.510;2024-02-26T10:07:45;1.87;;;1.43;;
11439;SDS011;5776;51.814;4.510;2024-02-26T10:10:15;3.97;;;2.20;;
11439;SDS011;5776;51.814;4.510;2024-02-26T10:12:43;4.60;;;2.60;;
11439;SDS011;5776;51.814;4.510;2024-02-26T10:15:09;3.00;;;2.07;;
11439;SDS011;5776;51.814;4.510;2024-02-26T10:17:34;3.33;;;2.17;;
11439;SDS011;5776;51.814;4.510;2024-02-26T10:20:12;3.83;;;2.37;;
11439;SDS011;5776;51.814;4.510;2024-02-26T10:22:44;3.97;;;2.70;;
11439;SDS011;5776;51.814;4.510;2024-02-26T10:25:10;3.40;;;2.53;;
11439;SDS011;5776;51.814;4.510;2024-02-26T10:27:36;3.93;;;2.47;;
11439;SDS011;5776;51.814;4.510;2024-02-26T10:30:03;4.47;;;2.60;;
11439;SDS011;5776;51.814;4.510;2024-02-26T10:32:30;4.27;;;2.87;;
11439;SDS011;5776;51.814;4.510;2024-02-26T10:34:57;5.37;;;2.83;;
11439;SDS011;5776;51.814;4.510;2024-02-26T10:37:23;2.63;;;2.07;;
11439;SDS011;5776;51.814;4.510;2024-02-26T10:39:50;3.13;;;2.00;;
11439;SDS011;5776;51.814;4.510;2024-02-26T10:42:16;3.87;;;2.70;;
11439;SDS011;5776;51.814;4.510;2024-02-26T10:44:45;2.67;;;1.90;;
11439;SDS011;5776;51.814;4.510;2024-02-26T10:47:11;4.10;;;2.83;;
11439;SDS011;5776;51.814;4.510;2024-02-26T10:49:38;0.93;;;0.80;;
11439;SDS011;5776;51.814;4.510;2024-02-26T10:52:09;2.37;;;1.63;;
11439;SDS011;5776;51.814;4.510;2024-02-26T10:54:36;2.50;;;1.70;;
11439;SDS011;5776;51.814;4.510;2024-02-26T10:57:06;4.00;;;1.80;;
11439;SDS011;5776;51.814;4.510;2024-02-26T10:59:34;5.70;;;2.40;;
11439;SDS011;5776;51.814;4.510;2024-02-26T11:02:00;3.60;;;2.00;;
11439;SDS011;5776;51.814;4.510;2024-02-26T11:04:26;2.87;;;1.63;;
11439;SDS011;5776;51.814;4.510;2024-02-26T11:06:54;2.20;;;1.50;;
11439;SDS011;5776;51.814;4.510;2024-02-26T11:09:23;2.90;;;2.10;;
11439;SDS011;5776;51.814;4.510;2024-02-26T11:11:49;3.93;;;2.40;;
11439;SDS011;5776;51.814;4.510;2024-02-26T11:14:19;2.80;;;1.90;;
11439;SDS011;5776;51.814;4.510;2024-02-26T11:16:47;2.10;;;1.90;;
11439;SDS011;5776;51.814;4.510;2024-02-26T11:19:15;1.77;;;1.20;;
11439;SDS011;5776;51.814;4.510;2024-02-26T11:21:42;2.70;;;1.67;;
11439;SDS011;5776;51.814;4.510;2024-02-26T11:24:09;2.63;;;1.73;;
11439;SDS011;5776;51.814;4.510;2024-02-26T11:26:39;1.90;;;1.23;;
11439;SDS011;5776;51.814;4.510;2024-02-26T11:29:25;2.23;;;1.80;;
11439;SDS011;5776;51.814;4.510;2024-02-26T11:31:55;3.70;;;2.17;;
11439;SDS011;5776;51.814;4.510;2024-02-26T11:34:22;2.50;;;1.83;;
11439;SDS011;5776;51.814;4.510;2024-02-26T11:36:49;2.57;;;1.87;;
11439;SDS011;5776;51.814;4.510;2024-02-26T11:39:16;3.93;;;1.97;;
11439;SDS011;5776;51.814;4.510;2024-02-26T11:41:43;2.60;;;1.57;;
11439;SDS011;5776;51.814;4.510;2024-02-26T11:44:09;4.43;;;1.93;;
11439;SDS011;5776;51.814;4.510;2024-02-26T11:46:41;1.30;;;1.03;;
11439;SDS011;5776;51.814;4.510;2024-02-26T11:51:51;2.83;;;1.83;;
11439;SDS011;5776;51.814;4.510;2024-02-26T11:54:38;0.87;;;0.73;;
11439;SDS011;5776;51.814;4.510;2024-02-26T11:59:53;5.40;;;2.20;;
11439;SDS011;5776;51.814;4.510;2024-02-26T12:05:19;2.63;;;2.07;;
11439;SDS011;5776;51.814;4.510;2024-02-26T12:07:55;3.00;;;1.70;;
11439;SDS011;5776;51.814;4.510;2024-02-26T12:10:25;3.57;;;2.20;;
11439;SDS011;5776;51.814;4.510;2024-02-26T12:12:58;2.90;;;2.00;;
11439;SDS011;5776;51.814;4.510;2024-02-26T12:15:32;5.20;;;2.33;;
11439;SDS011;5776;51.814;4.510;2024-02-26T12:18:03;3.63;;;2.27;;
11439;SDS011;5776;51.814;4.510;2024-02-26T12:20:30;3.50;;;2.40;;
11439;SDS011;5776;51.814;4.510;2024-02-26T12:22:57;5.50;;;3.23;;
11439;SDS011;5776;51.814;4.510;2024-02-26T12:25:25;3.33;;;1.97;;
11439;SDS011;5776;51.814;4.510;2024-02-26T12:27:53;3.53;;;2.50;;
11439;SDS011;5776;51.814;4.510;2024-02-26T12:30:19;2.57;;;1.87;;
11439;SDS011;5776;51.814;4.510;2024-02-26T12:32:50;2.53;;;1.83;;
11439;SDS011;5776;51.814;4.510;2024-02-26T12:35:17;3.53;;;2.17;;
11439;SDS011;5776;51.814;4.510;2024-02-26T12:37:44;3.63;;;2.30;;
11439;SDS011;5776;51.814;4.510;2024-02-26T12:40:10;4.13;;;2.33;;
11439;SDS011;5776;51.814;4.510;2024-02-26T12:42:38;3.40;;;2.23;;
11439;SDS011;5776;51.814;4.510;2024-02-26T12:45:06;3.40;;;1.83;;
11439;SDS011;5776;51.814;4.510;2024-02-26T12:47:35;2.43;;;1.70;;
11439;SDS011;5776;51.814;4.510;2024-02-26T12:50:02;3.80;;;2.50;;
11439;SDS011;5776;51.814;4.510;2024-02-26T12:52:31;3.33;;;2.23;;
11439;SDS011;5776;51.814;4.510;2024-02-26T12:54:59;1.97;;;1.60;;
11439;SDS011;5776;51.814;4.510;2024-02-26T12:57:26;2.87;;;2.20;;
11439;SDS011;5776;51.814;4.510;2024-02-26T12:59:55;4.13;;;2.37;;
11439;SDS011;5776;51.814;4.510;2024-02-26T13:02:22;3.10;;;2.03;;
11439;SDS011;5776;51.814;4.510;2024-02-26T13:04:49;1.57;;;1.17;;
11439;SDS011;5776;51.814;4.510;2024-02-26T13:07:14;3.70;;;2.20;;
11439;SDS011;5776;51.814;4.510;2024-02-26T13:09:40;2.47;;;1.67;;
11439;SDS011;5776;51.814;4.510;2024-02-26T13:12:06;3.00;;;1.77;;
11439;SDS011;5776;51.814;4.510;2024-02-26T13:14:33;6.40;;;2.43;;
11439;SDS011;5776;51.814;4.510;2024-02-26T13:17:00;1.53;;;1.43;;
11439;SDS011;5776;51.814;4.510;2024-02-26T13:19:26;3.20;;;1.17;;
11439;SDS011;5776;51.814;4.510;2024-02-26T13:21:53;4.20;;;1.97;;
11439;SDS011;5776;51.814;4.510;2024-02-26T13:24:20;3.00;;;2.20;;
11439;SDS011;5776;51.814;4.510;2024-02-26T13:26:54;1.77;;;1.50;;
11439;SDS011;5776;51.814;4.510;2024-02-26T13:29:20;5.47;;;2.10;;
11439;SDS011;5776;51.814;4.510;2024-02-26T13:31:53;3.23;;;2.50;;
11439;SDS011;5776;51.814;4.510;2024-02-26T13:34:28;0.73;;;0.70;;
11439;SDS011;5776;51.814;4.510;2024-02-26T13:36:56;3.20;;;2.10;;
11439;SDS011;5776;51.814;4.510;2024-02-26T13:39:25;3.27;;;2.17;;
11439;SDS011;5776;51.814;4.510;2024-02-26T13:41:52;1.83;;;1.43;;
11439;SDS011;5776;51.814;4.510;2024-02-26T13:44:20;8.10;;;2.43;;
11439;SDS011;5776;51.814;4.510;2024-02-26T13:46:47;4.43;;;1.77;;
11439;SDS011;5776;51.814;4.510;2024-02-26T13:49:13;2.33;;;1.67;;
11439;SDS011;5776;51.814;4.510;2024-02-26T13:51:39;2.63;;;1.60;;
11439;SDS011;5776;51.814;4.510;2024-02-26T13:54:05;1.87;;;1.20;;
11439;SDS011;5776;51.814;4.510;2024-02-26T13:56:34;4.47;;;2.27;;
11439;SDS011;5776;51.814;4.510;2024-02-26T13:59:01;2.87;;;1.70;;
11439;SDS011;5776;51.814;4.510;2024-02-26T14:01:27;4.67;;;2.43;;
11439;SDS011;5776;51.814;4.510;2024-02-26T14:03:53;3.17;;;1.70;;
11439;SDS011;5776;51.814;4.510;2024-02-26T14:06:20;3.43;;;2.20;;
11439;SDS011;5776;51.814;4.510;2024-02-26T14:08:47;1.80;;;1.47;;
11439;SDS011;5776;51.814;4.510;2024-02-26T14:11:12;4.70;;;2.30;;
11439;SDS011;5776;51.814;4.510;2024-02-26T14:13:40;3.93;;;2.10;;
11439;SDS011;5776;51.814;4.510;2024-02-26T14:16:06;4.00;;;2.17;;
11439;SDS011;5776;51.814;4.510;2024-02-26T14:18:32;4.07;;;1.80;;
11439;SDS011;5776;51.814;4.510;2024-02-26T14:20:58;0.60;;;0.57;;
11439;SDS011;5776;51.814;4.510;2024-02-26T14:23:25;2.73;;;1.90;;
11439;SDS011;5776;51.814;4.510;2024-02-26T14:25:50;3.07;;;2.13;;
11439;SDS011;5776;51.814;4.510;2024-02-26T14:28:16;3.30;;;2.20;;
11439;SDS011;5776;51.814;4.510;2024-02-26T14:30:42;2.13;;;1.13;;
11439;SDS011;5776;51.814;4.510;2024-02-26T14:33:09;2.07;;;1.30;;
11439;SDS011;5776;51.814;4.510;2024-02-26T14:35:35;3.60;;;1.50;;
11439;SDS011;5776;51.814;4.510;2024-02-26T14:38:01;3.13;;;2.20;;
11439;SDS011;5776;51.814;4.510;2024-02-26T14:40:28;5.13;;;1.67;;
11439;SDS011;5776;51.814;4.510;2024-02-26T14:42:54;3.77;;;2.17;;
11439;SDS011;5776;51.814;4.510;2024-02-26T14:45:20;3.90;;;2.10;;
11439;SDS011;5776;51.814;4.510;2024-02-26T14:47:45;2.13;;;1.70;;
11439;SDS011;5776;51.814;4.510;2024-02-26T14:50:11;2.10;;;1.30;;
11439;SDS011;5776;51.814;4.510;2024-02-26T14:52:37;2.67;;;1.60;;
11439;SDS011;5776;51.814;4.510;2024-02-26T14:55:03;2.60;;;1.67;;
11439;SDS011;5776;51.814;4.510;2024-02-26T14:57:31;2.10;;;1.57;;
11439;SDS011;5776;51.814;4.510;2024-02-26T14:59:56;2.13;;;1.47;;
11439;SDS011;5776;51.814;4.510;2024-02-26T15:02:22;2.47;;;1.67;;
11439;SDS011;5776;51.814;4.510;2024-02-26T15:04:48;2.13;;;1.40;;
11439;SDS011;5776;51.814;4.510;2024-02-26T15:07:14;3.07;;;1.53;;